createdAt,value
2018-09-26T00:07:15.206Z,88.50
2018-09-26T00:17:15.180Z,88.03
2018-09-26T00:27:15.193Z,90.69
2018-09-26T00:37:15.199Z,90.62
2018-09-26T00:47:15.144Z,90.49
2018-09-26T00:57:15.355Z,92.17
2018-09-26T01:07:15.279Z,91.30
2018-09-26T01:17:15.242Z,92.13
2018-09-26T01:27:15.178Z,92.51
2018-09-26T01:37:15.241Z,91.75
2018-09-26T01:47:15.201Z,92.22
2018-09-26T01:57:15.204Z,93.18
2018-09-26T02:07:15.151Z,93.27
2018-09-26T02:17:15.388Z,93.81
2018-09-26T02:27:15.166Z,94.84
2018-09-26T02:37:15.366Z,93.90
2018-09-26T02:47:15.176Z,93.53
2018-09-26T02:57:15.123Z,93.39
2018-09-26T03:07:15.198Z,95.26
2018-09-26T03:17:15.106Z,95.62
2018-09-26T03:27:15.118Z,96.66
2018-09-26T03:37:15.192Z,97.10
2018-09-26T03:47:15.137Z,97.35
2018-09-26T03:57:15.175Z,98.00
2018-09-26T04:07:15.145Z,98.32
2018-09-26T04:17:15.477Z,98.31
2018-09-26T04:27:15.333Z,98.46
2018-09-26T04:37:15.173Z,98.15
2018-09-26T04:47:15.158Z,98.45
2018-09-26T04:57:15.110Z,98.42
2018-09-26T05:07:16.205Z,99.00
2018-09-26T05:17:15.119Z,99.39
2018-09-26T05:27:15.116Z,98.91
2018-09-26T05:37:15.131Z,98.46
2018-09-26T05:47:15.213Z,98.67
2018-09-26T05:57:15.243Z,97.51
2018-09-26T06:07:15.038Z,96.58
2018-09-26T06:17:15.035Z,94.95
2018-09-26T06:27:15.103Z,93.72
2018-09-26T06:37:15.138Z,90.15
2018-09-26T06:47:15.079Z,86.31
2018-09-26T06:57:15.119Z,81.38
2018-09-26T07:07:16.041Z,78.57
2018-09-26T07:17:15.033Z,78.52
2018-09-26T07:27:15.158Z,75.52
2018-09-26T07:37:15.208Z,72.27
2018-09-26T07:47:16.013Z,69.49
2018-09-26T07:57:16.060Z,60.00
2018-09-26T08:07:15.757Z,59.45
2018-09-26T08:17:15.314Z,61.97
2018-09-26T08:27:15.083Z,52.81
2018-09-26T08:37:15.113Z,45.38
2018-09-26T08:47:16.077Z,38.87
2018-09-26T08:57:15.037Z,43.41
2018-09-26T09:07:15.112Z,39.07
2018-09-26T09:17:15.075Z,37.54
2018-09-26T09:27:15.267Z,30.61
2018-09-26T09:37:15.137Z,27.29
2018-09-26T09:47:15.063Z,21.42
2018-09-26T09:57:15.124Z,21.88
2018-09-26T10:07:15.057Z,22.63
2018-09-26T10:17:15.641Z,22.19
2018-09-26T10:27:15.168Z,23.77
2018-09-26T10:37:15.126Z,24.90
2018-09-26T10:47:15.183Z,24.07
2018-09-26T10:57:15.278Z,24.85
2018-09-26T11:07:15.284Z,25.17
2018-09-26T11:17:15.230Z,24.03
2018-09-26T11:27:15.201Z,24.83
2018-09-26T11:37:16.253Z,27.80
2018-09-26T11:47:16.114Z,24.33
2018-09-26T11:57:15.325Z,23.52
2018-09-26T12:07:15.938Z,21.69
2018-09-26T12:27:21.890Z,21.68
2018-09-26T12:37:21.313Z,20.53
2018-09-26T12:47:21.355Z,20.26
2018-09-26T12:57:21.363Z,21.10
2018-09-26T13:07:21.501Z,20.71
2018-09-26T13:17:21.223Z,20.03
2018-09-26T13:27:21.517Z,20.49
2018-09-26T13:37:21.614Z,22.12
2018-09-26T13:47:21.409Z,20.40
2018-09-26T13:57:21.186Z,19.70
2018-09-26T14:07:22.170Z,20.37
2018-09-26T14:17:21.374Z,20.29
2018-09-26T14:27:21.252Z,19.24
2018-09-26T14:57:19.879Z,19.06
2018-09-26T15:07:19.830Z,20.25
2018-09-26T15:17:20.827Z,18.59
2018-09-26T15:27:19.893Z,17.56
2018-09-26T15:37:19.905Z,18.15
2018-09-26T15:47:19.951Z,18.07
2018-09-26T15:57:19.852Z,18.24
2018-09-26T16:07:19.843Z,19.34
2018-09-26T16:17:20.043Z,21.59
2018-09-26T16:27:19.924Z,24.29
2018-09-26T16:37:19.865Z,32.18
2018-09-26T16:47:19.914Z,35.04
2018-09-26T16:57:19.833Z,38.77
2018-09-26T17:07:19.919Z,42.96
2018-09-26T17:17:19.887Z,45.87
2018-09-26T17:27:19.847Z,46.30
2018-09-26T17:37:19.820Z,47.64
2018-09-26T17:47:20.038Z,52.54
2018-09-26T17:57:19.892Z,57.19
2018-09-26T18:07:20.369Z,60.91
2018-09-26T18:17:19.916Z,63.78
2018-09-26T18:27:19.878Z,64.63
2018-09-26T18:37:19.989Z,66.21
2018-09-26T18:47:19.928Z,68.36
2018-09-26T18:57:19.875Z,68.63
2018-09-26T19:07:22.572Z,70.63
2018-09-26T19:17:19.853Z,68.84
2018-09-26T19:27:20.067Z,65.93
2018-09-26T19:37:19.891Z,68.20
2018-09-26T19:47:19.926Z,69.33
2018-09-26T19:57:19.863Z,71.09
2018-09-26T20:07:20.792Z,74.31
2018-09-26T20:17:19.865Z,77.60
2018-09-26T20:27:20.120Z,79.13
2018-09-26T20:37:19.944Z,79.65
2018-09-26T20:47:19.823Z,80.97
2018-09-26T20:57:20.395Z,82.02
2018-09-26T21:07:19.901Z,82.48
2018-09-26T21:17:19.982Z,83.18
2018-09-26T21:27:20.846Z,84.99
2018-09-26T21:37:19.920Z,84.15
2018-09-26T21:47:19.971Z,84.65
2018-09-26T21:57:19.921Z,86.26
2018-09-26T22:07:20.496Z,86.61
2018-09-26T22:17:19.920Z,86.48
2018-09-26T22:27:19.880Z,85.26
2018-09-26T22:37:19.871Z,87.11
2018-09-26T22:47:19.945Z,89.55
2018-09-26T22:57:19.823Z,88.88
2018-09-26T23:07:19.844Z,88.76
2018-09-26T23:17:19.895Z,88.80
2018-09-26T23:27:19.899Z,89.01
2018-09-26T23:37:19.821Z,89.42
2018-09-26T23:47:19.906Z,90.39
2018-09-26T23:57:19.922Z,91.78
